createdAt,value
2017-10-15T00:00:43.313Z,13.9
2017-10-15T00:01:42.779Z,13.9
2017-10-15T00:02:41.742Z,13.9
2017-10-15T00:03:41.230Z,13.9
2017-10-15T00:04:40.436Z,13.9
2017-10-15T00:05:39.398Z,13.9
2017-10-15T00:07:38.376Z,13.9
2017-10-15T00:08:37.308Z,13.9
2017-10-15T00:09:36.648Z,13.9
2017-10-15T00:10:35.854Z,13.9
2017-10-15T00:11:34.960Z,13.9
2017-10-15T00:12:34.425Z,13.9
2017-10-15T00:13:33.260Z,13.9
2017-10-15T00:14:32.731Z,13.9
2017-10-15T00:15:32.064Z,13.9
2017-10-15T00:16:31.269Z,13.9
2017-10-15T00:17:30.237Z,13.9
2017-10-15T00:18:29.329Z,13.9
2017-10-15T00:19:29.167Z,13.9
2017-10-15T00:20:27.739Z,13.9
2017-10-15T00:21:27.069Z,13.9
2017-10-15T00:22:26.402Z,13.9
2017-10-15T00:23:25.600Z,13.9
2017-10-15T00:24:25.078Z,13.9
2017-10-15T00:25:24.064Z,13.9
2017-10-15T00:26:23.266Z,13.8
2017-10-15T00:27:22.608Z,13.8
2017-10-15T00:28:21.943Z,13.8
2017-10-15T00:29:21.280Z,13.8
2017-10-15T00:30:20.374Z,13.8
2017-10-15T00:31:19.845Z,13.8
2017-10-15T00:32:18.805Z,13.8
2017-10-15T00:33:18.004Z,13.8
2017-10-15T00:35:16.461Z,13.7
2017-10-15T00:36:15.309Z,13.7
2017-10-15T00:37:14.645Z,13.7
2017-10-15T00:39:13.233Z,13.7
2017-10-15T00:40:12.708Z,13.7
2017-10-15T00:42:11.064Z,13.6
2017-10-15T00:44:09.292Z,13.6
2017-10-15T00:45:08.628Z,13.6
2017-10-15T00:46:07.824Z,13.6
2017-10-15T00:48:06.285Z,13.6
2017-10-15T00:49:05.900Z,13.6
2017-10-15T00:50:05.017Z,13.6
2017-10-15T00:51:03.719Z,13.6
2017-10-15T00:52:03.339Z,13.6
2017-10-15T00:53:02.314Z,13.6
2017-10-15T00:54:01.519Z,13.6
2017-10-15T00:55:00.679Z,13.6
2017-10-15T00:56:00.006Z,13.6
2017-10-15T00:56:59.355Z,13.6
2017-10-15T00:57:58.683Z,13.6
2017-10-15T00:58:58.027Z,13.5
2017-10-15T00:59:56.993Z,13.5
2017-10-15T01:00:56.461Z,13.5
2017-10-15T01:01:55.453Z,13.5
2017-10-15T01:02:54.802Z,13.5
2017-10-15T01:04:53.521Z,13.5
2017-10-15T01:05:52.480Z,13.5
2017-10-15T01:06:51.557Z,13.5
2017-10-15T01:07:51.032Z,13.5
2017-10-15T01:08:49.875Z,13.4
2017-10-15T01:09:49.075Z,13.4
2017-10-15T01:10:48.410Z,13.4
2017-10-15T01:11:47.878Z,13.4
2017-10-15T01:12:47.089Z,13.4
2017-10-15T01:13:45.913Z,13.4
2017-10-15T01:14:45.363Z,13.4
2017-10-15T01:15:44.569Z,13.4
2017-10-15T01:16:44.038Z,13.3
2017-10-15T01:17:43.239Z,13.3
2017-10-15T01:18:42.203Z,13.3
2017-10-15T01:19:41.670Z,13.3
2017-10-15T01:20:40.369Z,13.3
2017-10-15T01:21:40.082Z,13.2
2017-10-15T01:22:39.282Z,13.2
2017-10-15T01:23:38.484Z,13.3
2017-10-15T01:24:37.313Z,13.3
2017-10-15T01:25:36.921Z,13.3
2017-10-15T01:26:36.014Z,13.2
2017-10-15T01:28:34.352Z,13.2
2017-10-15T01:29:33.447Z,13.2
2017-10-15T01:30:33.027Z,13.2
2017-10-15T01:31:31.862Z,13.2
2017-10-15T01:32:31.068Z,13.2
2017-10-15T01:33:30.398Z,13.2
2017-10-15T01:34:29.731Z,13.2
2017-10-15T01:35:29.198Z,13.2
2017-10-15T01:36:28.269Z,13.2
2017-10-15T01:37:27.726Z,13.2
2017-10-15T01:38:26.424Z,13.2
2017-10-15T01:39:25.770Z,13.1
2017-10-15T01:40:24.973Z,13.1
2017-10-15T01:41:24.439Z,13.1
2017-10-15T01:42:23.511Z,13.1
2017-10-15T01:43:22.477Z,13.1
2017-10-15T01:44:21.958Z,13.1
2017-10-15T01:45:21.307Z,13.1
2017-10-15T01:46:20.001Z,13.1
2017-10-15T01:47:19.469Z,13.1
2017-10-15T01:48:18.800Z,13.1
2017-10-15T01:49:18.007Z,13.1
2017-10-15T01:50:16.967Z,13.1
2017-10-15T01:51:16.190Z,13.1
2017-10-15T01:52:15.656Z,13.1
2017-10-15T01:54:14.020Z,13
2017-10-15T01:55:13.225Z,13
2017-10-15T01:56:12.425Z,13
2017-10-15T01:56:43.087Z,13
2017-10-15T01:58:10.732Z,13
2017-10-15T01:59:10.061Z,12.9
2017-10-15T02:00:09.400Z,12.9
2017-10-15T02:01:08.604Z,12.9
2017-10-15T02:02:07.940Z,12.9
2017-10-15T02:03:06.763Z,12.9
2017-10-15T02:04:06.111Z,12.9
2017-10-15T02:05:05.045Z,12.8
2017-10-15T02:06:04.385Z,12.8
2017-10-15T02:07:03.722Z,12.8
2017-10-15T02:07:34.248Z,12.8
2017-10-15T02:08:04.890Z,12.8
2017-10-15T02:09:02.479Z,12.8
2017-10-15T02:10:01.315Z,12.8
2017-10-15T02:11:00.415Z,12.7
2017-10-15T02:11:59.893Z,12.7
2017-10-15T02:12:58.727Z,12.7
2017-10-15T02:13:58.431Z,12.7
2017-10-15T02:14:57.395Z,12.7
2017-10-15T02:15:56.873Z,12.7
2017-10-15T02:17:05.898Z,12.7
2017-10-15T02:17:55.186Z,12.7
2017-10-15T02:18:54.535Z,12.7
2017-10-15T02:19:53.618Z,12.7
2017-10-15T02:20:52.703Z,12.7
2017-10-15T02:21:52.047Z,12.7
2017-10-15T02:22:50.883Z,12.7
2017-10-15T02:23:50.729Z,12.6
2017-10-15T02:24:49.704Z,12.6
2017-10-15T02:25:49.037Z,12.6
2017-10-15T02:26:48.022Z,12.6
2017-10-15T02:28:46.756Z,12.6
2017-10-15T02:29:45.603Z,12.6
2017-10-15T02:30:44.600Z,12.6
2017-10-15T02:31:44.095Z,12.6
2017-10-15T02:32:43.299Z,12.6
2017-10-15T02:33:42.642Z,12.6
2017-10-15T02:34:41.484Z,12.6
2017-10-15T02:35:40.700Z,12.6
2017-10-15T02:36:39.931Z,12.6
2017-10-15T02:37:39.032Z,12.6
2017-10-15T02:38:38.519Z,12.5
2017-10-15T02:39:37.744Z,12.5
2017-10-15T02:40:36.815Z,12.5
2017-10-15T02:41:36.162Z,12.5
2017-10-15T02:42:35.274Z,12.5
2017-10-15T02:43:34.377Z,12.5
2017-10-15T02:44:33.621Z,12.5
2017-10-15T02:45:32.704Z,12.5
2017-10-15T02:46:32.058Z,12.5
2017-10-15T02:47:31.405Z,12.5
2017-10-15T02:48:30.533Z,12.5
2017-10-15T02:49:29.812Z,12.5
2017-10-15T02:50:28.928Z,12.4
2017-10-15T02:51:28.146Z,12.4
2017-10-15T02:52:27.265Z,12.4
2017-10-15T02:53:26.486Z,12.4
2017-10-15T02:54:25.700Z,12.4
2017-10-15T02:55:24.823Z,12.4
2017-10-15T02:56:24.433Z,12.4
2017-10-15T02:57:23.276Z,12.4
2017-10-15T02:58:22.487Z,12.4
2017-10-15T02:59:21.827Z,12.4
2017-10-15T03:00:20.666Z,12.4
2017-10-15T03:01:20.146Z,12.4
2017-10-15T03:02:19.237Z,12.4
2017-10-15T03:02:49.894Z,12.4
2017-10-15T03:03:20.418Z,12.4
2017-10-15T03:03:51.076Z,12.4
2017-10-15T03:04:21.364Z,12.4
2017-10-15T03:06:16.073Z,12.4
2017-10-15T03:07:15.559Z,12.4
2017-10-15T03:10:12.811Z,12.4
2017-10-15T03:11:12.158Z,12.4
2017-10-15T03:12:11.509Z,12.4
2017-10-15T03:13:10.763Z,12.4
2017-10-15T03:14:09.736Z,12.4
2017-10-15T03:15:08.581Z,12.4
2017-10-15T03:16:08.174Z,12.5
2017-10-15T03:17:07.140Z,12.5
2017-10-15T03:18:06.362Z,12.5
2017-10-15T03:19:05.830Z,12.5
2017-10-15T03:20:04.540Z,12.4
2017-10-15T03:21:04.165Z,12.5
2017-10-15T03:22:03.013Z,12.5
2017-10-15T03:23:02.366Z,12.5
2017-10-15T03:24:01.576Z,12.5
2017-10-15T03:25:00.651Z,12.5
2017-10-15T03:25:59.860Z,12.5
2017-10-15T03:26:59.483Z,12.5
2017-10-15T03:27:58.322Z,12.5
2017-10-15T03:28:57.531Z,12.5
2017-10-15T03:29:56.882Z,12.5
2017-10-15T03:30:56.232Z,12.5
2017-10-15T03:31:55.222Z,12.5
2017-10-15T03:32:54.569Z,12.5
2017-10-15T03:33:53.682Z,12.5
2017-10-15T03:34:52.885Z,12.5
2017-10-15T03:35:51.964Z,12.5
2017-10-15T03:36:50.952Z,12.5
2017-10-15T03:37:50.536Z,12.5
2017-10-15T03:38:50.017Z,12.5
2017-10-15T03:39:48.852Z,12.4
2017-10-15T03:40:48.192Z,12.5
2017-10-15T03:41:47.159Z,12.5
2017-10-15T03:42:46.503Z,12.4
2017-10-15T03:43:45.720Z,12.4
2017-10-15T03:44:44.830Z,12.4
2017-10-15T03:45:44.317Z,12.4
2017-10-15T03:46:43.671Z,12.4
2017-10-15T03:47:42.513Z,12.4
2017-10-15T03:48:41.867Z,12.4
2017-10-15T03:49:40.839Z,12.4
2017-10-15T03:50:39.969Z,12.4
2017-10-15T03:51:39.320Z,12.4
2017-10-15T03:52:38.803Z,12.3
2017-10-15T03:53:37.642Z,12.3
2017-10-15T03:54:36.622Z,12.3
2017-10-15T03:55:35.844Z,12.3
2017-10-15T03:56:35.452Z,12.3
2017-10-15T03:57:34.560Z,12.3
2017-10-15T03:58:33.777Z,12.3
2017-10-15T03:59:32.757Z,12.3
2017-10-15T04:00:31.970Z,12.3
2017-10-15T04:01:31.051Z,12.3
2017-10-15T04:02:30.527Z,12.3
2017-10-15T04:03:29.380Z,12.3
2017-10-15T04:04:28.722Z,12.2
2017-10-15T04:05:28.074Z,12.2
2017-10-15T04:06:27.180Z,12.2
2017-10-15T04:07:26.281Z,12.2
2017-10-15T04:08:25.756Z,12.2
2017-10-15T04:09:24.467Z,12.2
2017-10-15T04:10:24.171Z,12.2
2017-10-15T04:11:23.248Z,12.1
2017-10-15T04:12:22.617Z,12.1
2017-10-15T04:13:21.457Z,12.1
2017-10-15T04:14:20.658Z,12.1
2017-10-15T04:15:19.601Z,12.1
2017-10-15T04:16:19.200Z,12.1
2017-10-15T04:17:18.412Z,12
2017-10-15T04:18:17.493Z,12
2017-10-15T04:19:16.831Z,12
2017-10-15T04:20:15.909Z,12
2017-10-15T04:21:15.259Z,12
2017-10-15T04:22:13.966Z,11.9
2017-10-15T04:23:13.301Z,11.9
2017-10-15T04:24:13.047Z,11.9
2017-10-15T04:25:12.017Z,11.9
2017-10-15T04:26:10.994Z,11.9
2017-10-15T04:27:10.099Z,11.9
2017-10-15T04:28:09.443Z,11.9
2017-10-15T04:30:08.048Z,11.8
2017-10-15T04:31:07.150Z,11.8
2017-10-15T04:32:06.129Z,11.8
2017-10-15T04:33:05.602Z,11.8
2017-10-15T04:34:04.439Z,11.8
2017-10-15T04:35:03.791Z,11.7
2017-10-15T04:37:02.320Z,11.7
2017-10-15T04:38:01.416Z,11.7
2017-10-15T04:39:00.760Z,11.7
2017-10-15T04:40:58.866Z,11.7
2017-10-15T04:41:58.208Z,11.7
2017-10-15T04:42:57.548Z,11.7
2017-10-15T04:43:56.680Z,11.7
2017-10-15T04:44:55.392Z,11.7
2017-10-15T04:45:54.740Z,11.7
2017-10-15T04:46:54.100Z,11.7
2017-10-15T04:47:53.439Z,11.7
2017-10-15T04:48:52.381Z,11.7
2017-10-15T04:49:51.704Z,11.7
2017-10-15T04:50:50.553Z,11.7
2017-10-15T04:51:49.885Z,11.7
2017-10-15T04:52:49.493Z,11.7
2017-10-15T04:53:48.338Z,11.7
2017-10-15T04:54:47.333Z,11.7
2017-10-15T04:55:46.556Z,11.7
2017-10-15T04:56:46.130Z,11.7
2017-10-15T04:57:45.497Z,11.7
2017-10-15T04:58:44.598Z,11.7
2017-10-15T04:59:43.312Z,11.7
2017-10-15T05:00:42.787Z,11.7
2017-10-15T05:01:41.760Z,11.7
2017-10-15T05:02:41.101Z,11.7
2017-10-15T05:03:40.328Z,11.7
2017-10-15T05:04:39.542Z,11.7
2017-10-15T05:05:38.261Z,11.7
2017-10-15T05:06:37.608Z,11.7
2017-10-15T05:07:07.771Z,11.7
2017-10-15T05:07:38.292Z,11.8
2017-10-15T05:08:36.127Z,11.8
2017-10-15T05:09:35.468Z,11.8
2017-10-15T05:10:34.574Z,11.8
2017-10-15T05:11:33.907Z,11.8
2017-10-15T05:12:33.117Z,11.8
2017-10-15T05:13:32.092Z,11.8
2017-10-15T05:14:31.204Z,11.8
2017-10-15T05:15:30.677Z,11.8
2017-10-15T05:16:29.384Z,11.8
2017-10-15T05:17:28.721Z,11.8
2017-10-15T05:18:27.928Z,11.8
2017-10-15T05:19:27.399Z,11.8
2017-10-15T05:20:26.256Z,11.8
2017-10-15T05:21:25.456Z,11.8
2017-10-15T05:21:55.980Z,11.8
2017-10-15T05:23:23.611Z,11.8
2017-10-15T05:24:23.086Z,11.8
2017-10-15T05:25:22.430Z,11.8
2017-10-15T05:26:21.281Z,11.8
2017-10-15T05:27:20.887Z,11.8
2017-10-15T05:28:19.860Z,11.8
2017-10-15T05:29:19.215Z,11.7
2017-10-15T05:30:18.059Z,11.7
2017-10-15T05:31:17.535Z,11.7
2017-10-15T05:32:16.374Z,11.7
2017-10-15T05:33:15.853Z,11.7
2017-10-15T05:34:14.847Z,11.7
2017-10-15T05:35:13.839Z,11.7
2017-10-15T05:36:13.056Z,11.7
2017-10-15T05:37:12.578Z,11.7
2017-10-15T05:38:11.428Z,11.7
2017-10-15T05:39:10.771Z,11.7
2017-10-15T05:40:09.981Z,11.7
2017-10-15T05:41:09.211Z,11.7
2017-10-15T05:42:08.550Z,11.6
2017-10-15T05:43:07.664Z,11.7
2017-10-15T05:44:06.647Z,11.6
2017-10-15T05:45:05.993Z,11.6
2017-10-15T05:46:04.839Z,11.6
2017-10-15T05:47:04.194Z,11.6
2017-10-15T05:48:03.685Z,11.7
2017-10-15T05:50:01.917Z,11.6
2017-10-15T05:51:01.271Z,11.6
2017-10-15T05:52:00.247Z,11.7
2017-10-15T05:52:59.326Z,11.7
2017-10-15T05:53:58.410Z,11.7
2017-10-15T05:54:57.752Z,11.7
2017-10-15T05:55:57.097Z,11.7
2017-10-15T05:56:56.296Z,11.7
2017-10-15T05:57:55.123Z,11.7
2017-10-15T05:58:54.570Z,11.7
2017-10-15T05:59:53.285Z,11.7
2017-10-15T06:00:52.765Z,11.7
2017-10-15T06:01:23.290Z,11.7
2017-10-15T06:01:53.950Z,11.7
2017-10-15T06:02:24.475Z,11.7
2017-10-15T06:02:55.279Z,11.7
2017-10-15T06:03:25.791Z,11.7
2017-10-15T06:04:49.809Z,11.7
2017-10-15T06:05:48.767Z,11.7
2017-10-15T06:06:47.976Z,11.8
2017-10-15T06:07:47.080Z,11.8
2017-10-15T06:08:46.332Z,11.8
2017-10-15T06:09:45.684Z,11.8
2017-10-15T06:10:44.655Z,11.8
2017-10-15T06:11:43.870Z,11.8
2017-10-15T06:12:42.714Z,11.8
2017-10-15T06:14:41.610Z,11.8
2017-10-15T06:15:40.813Z,11.8
2017-10-15T06:17:39.177Z,11.9
2017-10-15T06:18:38.157Z,11.9
2017-10-15T06:19:37.365Z,11.8
2017-10-15T06:20:36.574Z,11.9
2017-10-15T06:21:35.540Z,11.9
2017-10-15T06:22:34.620Z,11.8
2017-10-15T06:23:34.100Z,11.9
2017-10-15T06:24:33.200Z,11.9
2017-10-15T06:25:32.307Z,11.9
2017-10-15T06:26:31.521Z,11.9
2017-10-15T06:27:30.999Z,11.9
2017-10-15T06:28:29.847Z,11.9
2017-10-15T06:29:29.191Z,11.9
2017-10-15T06:30:28.664Z,11.9
2017-10-15T06:31:27.768Z,11.9
2017-10-15T06:32:26.743Z,11.9
2017-10-15T06:33:25.824Z,11.9
2017-10-15T06:34:25.165Z,11.9
2017-10-15T06:35:24.240Z,11.9
2017-10-15T06:36:23.481Z,11.9
2017-10-15T06:37:22.554Z,11.9
2017-10-15T06:38:21.575Z,11.9
2017-10-15T06:39:21.063Z,11.9
2017-10-15T06:41:19.426Z,12
2017-10-15T06:42:18.637Z,12
2017-10-15T06:43:17.347Z,12
2017-10-15T06:44:16.699Z,12
2017-10-15T06:45:15.911Z,12
2017-10-15T06:46:15.517Z,12
2017-10-15T06:47:14.627Z,12
2017-10-15T06:48:13.607Z,12.1
2017-10-15T06:49:12.455Z,12.1
2017-10-15T06:50:12.064Z,12.1
2017-10-15T06:51:11.281Z,12.1
2017-10-15T06:52:10.695Z,12.1
2017-10-15T06:53:09.680Z,12.1
2017-10-15T06:54:08.894Z,12.1
2017-10-15T06:55:08.105Z,12.1
2017-10-15T06:56:07.310Z,12.1
2017-10-15T06:57:06.017Z,12.2
2017-10-15T06:58:05.765Z,12.2
2017-10-15T06:59:04.847Z,12.2
2017-10-15T07:01:03.211Z,12.3
2017-10-15T07:02:02.200Z,12.3
2017-10-15T07:03:01.570Z,12.4
2017-10-15T07:04:00.794Z,12.4
2017-10-15T07:04:59.636Z,12.4
2017-10-15T07:05:58.710Z,12.4
2017-10-15T07:06:58.193Z,12.4
2017-10-15T07:07:57.296Z,12.4
2017-10-15T07:08:56.633Z,12.4
2017-10-15T07:09:55.623Z,12.4
2017-10-15T07:10:54.708Z,12.5
2017-10-15T07:11:54.188Z,12.5
2017-10-15T07:12:53.271Z,12.5
2017-10-15T07:13:52.751Z,12.5
2017-10-15T07:14:51.328Z,12.6
2017-10-15T07:15:50.805Z,12.6
2017-10-15T07:16:50.041Z,12.6
2017-10-15T07:17:49.314Z,12.6
2017-10-15T07:18:48.201Z,12.6
2017-10-15T07:19:47.414Z,12.6
2017-10-15T07:20:46.492Z,12.6
2017-10-15T07:21:46.371Z,12.6
2017-10-15T07:22:45.349Z,12.6
2017-10-15T07:23:44.432Z,12.7
2017-10-15T07:24:43.651Z,12.7
2017-10-15T07:25:42.617Z,12.7
2017-10-15T07:26:41.598Z,12.7
2017-10-15T07:27:41.442Z,12.7
2017-10-15T07:28:40.401Z,12.7
2017-10-15T07:29:39.752Z,12.7
2017-10-15T07:30:38.734Z,12.8
2017-10-15T07:31:37.721Z,12.8
2017-10-15T07:32:37.068Z,12.8
2017-10-15T07:33:36.277Z,12.9
2017-10-15T07:34:35.627Z,12.9
2017-10-15T07:35:34.710Z,12.9
2017-10-15T07:36:33.666Z,12.9
2017-10-15T07:37:33.392Z,12.9
2017-10-15T07:38:32.367Z,12.9
2017-10-15T07:39:31.077Z,13
2017-10-15T07:40:30.793Z,13
2017-10-15T07:41:29.493Z,13
2017-10-15T07:42:28.835Z,13
2017-10-15T07:43:28.183Z,13.1
2017-10-15T07:44:27.655Z,13.1
2017-10-15T07:45:26.772Z,13.2
2017-10-15T07:46:25.743Z,13.2
2017-10-15T07:47:24.841Z,13.2
2017-10-15T07:48:24.187Z,13.2
2017-10-15T07:49:23.670Z,13.2
2017-10-15T07:50:22.251Z,13.2
2017-10-15T07:51:21.727Z,13.2
2017-10-15T07:52:20.841Z,13.2
2017-10-15T07:53:19.918Z,13.2
2017-10-15T07:54:19.266Z,13.3
2017-10-15T07:55:18.751Z,13.3
2017-10-15T07:56:17.967Z,13.4
2017-10-15T07:57:16.808Z,13.4
2017-10-15T07:58:16.160Z,13.4
2017-10-15T07:59:15.527Z,13.4
2017-10-15T08:00:14.494Z,13.5
2017-10-15T08:01:13.728Z,13.5
2017-10-15T08:02:13.070Z,13.5
2017-10-15T08:03:12.180Z,13.6
2017-10-15T08:04:11.526Z,13.7
2017-10-15T08:05:10.509Z,13.7
2017-10-15T08:06:09.994Z,13.8
2017-10-15T08:07:08.844Z,13.9
2017-10-15T08:08:08.186Z,13.9
2017-10-15T08:09:07.403Z,13.9
2017-10-15T08:11:05.767Z,14
2017-10-15T08:12:04.981Z,14
2017-10-15T08:13:04.452Z,14
2017-10-15T08:14:03.305Z,14
2017-10-15T08:15:02.785Z,14
2017-10-15T08:16:02.129Z,14
2017-10-15T08:17:00.848Z,14
2017-10-15T08:18:00.335Z,14
2017-10-15T08:20:57.980Z,14.1
2017-10-15T08:21:57.208Z,14.2
2017-10-15T08:22:56.055Z,14.2
2017-10-15T08:23:55.400Z,14.3
